Time,TemperatureF,DewpointF,PressureIn,WindDirection,WindDirectionDegrees,WindSpeedMPH,WindSpeedGustMPH,Humidity,HourlyPrecipIn,Conditions,Clouds,dailyrainin,SoftwareType,DateUTC
2013-01-12 00:01:00,27.9,24.5,29.59,NE,39,0.0,0.0,87,0.00,,---,0.00,VWS V14.01,2013-01-12 08:01:00,
2013-01-12 00:06:00,28.0,24.7,29.59,NE,39,0.0,0.0,87,0.00,,---,0.00,VWS V14.01,2013-01-12 08:06:00,
2013-01-12 00:11:00,28.0,24.7,29.59,NE,39,0.0,0.0,87,0.00,,---,0.00,VWS V14.01,2013-01-12 08:11:00,
2013-01-12 00:16:00,28.2,24.9,29.59,NE,39,0.0,0.0,87,0.00,,---,0.00,VWS V14.01,2013-01-12 08:16:00,
2013-01-12 00:21:00,28.0,24.7,29.59,NE,39,0.0,0.0,87,0.00,,---,0.00,VWS V14.01,2013-01-12 08:21:00,
2013-01-12 00:26:00,28.0,24.7,29.59,NE,39,0.0,0.0,87,0.00,,---,0.00,VWS V14.01,2013-01-12 08:26:00,
2013-01-12 00:31:00,28.0,24.7,29.59,NE,39,0.0,0.0,87,0.00,,---,0.00,VWS V14.01,2013-01-12 08:31:00,
2013-01-12 00:36:00,28.2,24.9,29.59,NE,41,0.0,0.0,87,0.00,,---,0.00,VWS V14.01,2013-01-12 08:36:00,
2013-01-12 00:41:00,28.4,25.0,29.59,NE,41,0.0,0.0,87,0.00,,---,0.00,VWS V14.01,2013-01-12 08:41:00,
2013-01-12 00:46:00,28.6,24.9,29.59,NE,41,0.0,0.0,86,0.00,,---,0.00,VWS V14.01,2013-01-12 08:46:00,
2013-01-12 00:51:00,28.6,24.9,29.59,NE,41,0.0,0.0,86,0.00,,---,0.00,VWS V14.01,2013-01-12 08:51:00,
2013-01-12 00:56:00,28.6,24.9,29.59,NE,41,0.0,0.0,86,0.00,,---,0.00,VWS V14.01,2013-01-12 08:56:00,
2013-01-12 01:01:00,28.6,24.9,29.59,NE,41,0.0,0.0,86,0.00,,---,0.00,VWS V14.01,2013-01-12 09:01:00,
2013-01-12 01:06:00,28.2,24.3,29.59,NE,41,0.0,0.0,85,0.00,,---,0.00,VWS V14.01,2013-01-12 09:06:00,
2013-01-12 01:11:00,27.7,23.8,29.59,NE,41,0.0,0.0,85,0.00,,---,0.00,VWS V14.01,2013-01-12 09:11:00,
2013-01-12 01:16:00,27.1,23.0,29.59,NE,41,0.0,0.0,84,0.00,,---,0.00,VWS V14.01,2013-01-12 09:16:00,
2013-01-12 01:21:00,26.8,22.6,29.59,NE,41,0.0,0.0,84,0.00,,---,0.00,VWS V14.01,2013-01-12 09:21:00,
2013-01-12 01:26:00,26.4,22.2,29.59,NE,41,0.0,0.0,84,0.00,,---,0.00,VWS V14.01,2013-01-12 09:26:00,
2013-01-12 01:31:00,26.1,21.6,29.59,NE,41,0.0,0.0,83,0.00,,---,0.00,VWS V14.01,2013-01-12 09:31:00,
2013-01-12 01:36:00,25.9,21.4,29.59,NE,41,0.0,0.0,83,0.00,,---,0.00,VWS V14.01,2013-01-12 09:36:00,
2013-01-12 01:41:00,25.7,21.3,29.59,NE,41,0.0,0.0,83,0.00,,---,0.00,VWS V14.01,2013-01-12 09:41:00,
2013-01-12 01:46:00,25.5,21.1,29.59,NE,41,0.0,0.0,83,0.00,,---,0.00,VWS V14.01,2013-01-12 09:46:00,
2013-01-12 01:51:00,25.3,20.9,29.59,NE,41,0.0,0.0,83,0.00,,---,0.00,VWS V14.01,2013-01-12 09:51:00,
2013-01-12 01:56:00,25.3,20.9,29.59,NE,41,0.0,0.0,83,0.00,,---,0.00,VWS V14.01,2013-01-12 09:56:00,
2013-01-12 02:01:00,25.3,20.9,29.59,NE,41,0.0,0.0,83,0.00,,---,0.00,VWS V14.01,2013-01-12 10:01:00,
2013-01-12 02:06:00,25.3,20.9,29.59,NE,41,0.0,0.0,83,0.00,,---,0.00,VWS V14.01,2013-01-12 10:06:00,
2013-01-12 02:11:00,25.2,20.7,29.59,NE,41,0.0,0.0,83,0.00,,---,0.00,VWS V14.01,2013-01-12 10:11:00,
2013-01-12 02:16:00,25.0,20.6,29.59,NE,41,0.0,0.0,83,0.00,,---,0.00,VWS V14.01,2013-01-12 10:16:00,
2013-01-12 02:21:00,25.0,20.6,29.59,NE,41,0.0,0.0,83,0.00,,---,0.00,VWS V14.01,2013-01-12 10:21:00,
2013-01-12 02:26:00,25.0,20.6,29.59,NE,41,0.0,0.0,83,0.00,,---,0.00,VWS V14.01,2013-01-12 10:26:00,
2013-01-12 02:31:00,25.0,20.6,29.59,NE,41,0.0,0.0,83,0.00,,---,0.00,VWS V14.01,2013-01-12 10:31:00,
2013-01-12 02:36:00,25.0,20.6,29.59,NE,41,0.0,0.0,83,0.00,,---,0.00,VWS V14.01,2013-01-12 10:36:00,
2013-01-12 02:41:00,25.2,21.0,29.59,NE,41,0.0,0.0,84,0.00,,---,0.00,VWS V14.01,2013-01-12 10:41:00,
2013-01-12 02:46:00,25.5,21.4,29.59,NE,41,0.0,0.0,84,0.00,,---,0.00,VWS V14.01,2013-01-12 10:46:00,
2013-01-12 02:51:00,25.9,21.7,29.59,NE,41,0.0,0.0,84,0.00,,---,0.00,VWS V14.01,2013-01-12 10:51:00,
2013-01-12 02:56:00,26.1,22.2,29.59,NE,41,0.0,0.0,85,0.00,,---,0.00,VWS V14.01,2013-01-12 10:56:00,
2013-01-12 03:01:00,26.1,22.2,29.59,NE,41,0.0,0.0,85,0.00,,---,0.00,VWS V14.01,2013-01-12 11:01:00,
2013-01-12 03:06:00,25.9,22.0,29.59,NE,41,0.0,0.0,85,0.00,,---,0.00,VWS V14.01,2013-01-12 11:06:00,
2013-01-12 03:11:00,26.1,22.2,29.59,NE,41,0.0,0.0,85,0.00,,---,0.00,VWS V14.01,2013-01-12 11:11:00,
2013-01-12 03:16:00,26.1,22.2,29.59,NE,41,0.0,0.0,85,0.00,,---,0.00,VWS V14.01,2013-01-12 11:16:00,
2013-01-12 03:21:00,26.4,22.5,29.59,NE,41,0.0,0.0,85,0.00,,---,0.00,VWS V14.01,2013-01-12 11:21:00,
2013-01-12 03:26:00,26.4,22.5,29.59,NE,41,0.0,0.0,85,0.00,,---,0.00,VWS V14.01,2013-01-12 11:26:00,
2013-01-12 03:31:00,26.4,22.5,29.59,NE,41,0.0,0.0,85,0.00,,---,0.00,VWS V14.01,2013-01-12 11:31:00,
2013-01-12 03:36:00,26.4,22.5,29.59,NE,41,0.0,0.0,85,0.00,,---,0.00,VWS V14.01,2013-01-12 11:36:00,
2013-01-12 03:41:00,26.2,22.4,29.59,NE,41,0.0,0.0,85,0.00,,---,0.00,VWS V14.01,2013-01-12 11:41:00,
2013-01-12 03:46:00,26.1,21.9,29.59,NE,41,0.0,0.0,84,0.00,,---,0.00,VWS V14.01,2013-01-12 11:46:00,
2013-01-12 03:51:00,25.9,21.7,29.59,NE,41,0.0,0.0,84,0.00,,---,0.00,VWS V14.01,2013-01-12 11:51:00,
2013-01-12 03:56:00,25.7,21.5,29.59,NE,41,0.0,0.0,84,0.00,,---,0.00,VWS V14.01,2013-01-12 11:56:00,
2013-01-12 04:01:00,25.3,20.9,29.59,NE,41,0.0,0.0,83,0.00,,---,0.00,VWS V14.01,2013-01-12 12:01:00,
2013-01-12 04:06:00,25.2,20.5,29.59,NE,41,0.0,0.0,82,0.00,,---,0.00,VWS V14.01,2013-01-12 12:06:00,
2013-01-12 04:11:00,25.0,20.3,29.59,NE,41,0.0,0.0,82,0.00,,---,0.00,VWS V14.01,2013-01-12 12:11:00,
2013-01-12 04:16:00,24.8,20.1,29.59,NE,41,0.0,0.0,82,0.00,,---,0.00,VWS V14.01,2013-01-12 12:16:00,
2013-01-12 04:21:00,24.8,20.1,29.59,NE,41,0.0,0.0,82,0.00,,---,0.00,VWS V14.01,2013-01-12 12:21:00,
2013-01-12 04:26:00,24.8,20.1,29.59,NE,41,0.0,0.0,82,0.00,,---,0.00,VWS V14.01,2013-01-12 12:26:00,
2013-01-12 04:31:00,24.8,20.4,29.59,NE,41,0.0,0.0,83,0.00,,---,0.00,VWS V14.01,2013-01-12 12:31:00,
2013-01-12 04:36:00,25.2,20.5,29.59,NE,41,0.0,0.0,82,0.00,,---,0.00,VWS V14.01,2013-01-12 12:36:00,
2013-01-12 04:41:00,25.2,20.5,29.59,NE,41,0.0,0.0,82,0.00,,---,0.00,VWS V14.01,2013-01-12 12:41:00,
2013-01-12 04:46:00,25.2,20.5,29.59,NE,41,0.0,0.0,82,0.00,,---,0.00,VWS V14.01,2013-01-12 12:46:00,
2013-01-12 04:51:00,25.2,20.5,29.59,NE,41,0.0,0.0,82,0.00,,---,0.00,VWS V14.01,2013-01-12 12:51:00,
2013-01-12 04:56:00,25.2,20.5,29.59,NE,41,0.0,0.0,82,0.00,,---,0.00,VWS V14.01,2013-01-12 12:56:00,
2013-01-12 05:01:00,25.2,20.5,29.59,NE,41,0.0,0.0,82,0.00,,---,0.00,VWS V14.01,2013-01-12 13:01:00,
2013-01-12 05:06:00,25.0,20.3,29.59,NE,41,0.0,0.0,82,0.00,,---,0.00,VWS V14.01,2013-01-12 13:06:00,
2013-01-12 05:11:00,24.8,20.1,29.59,NE,41,0.0,0.0,82,0.00,,---,0.00,VWS V14.01,2013-01-12 13:11:00,
2013-01-12 05:16:00,24.8,20.1,29.59,NE,41,0.0,0.0,82,0.00,,---,0.00,VWS V14.01,2013-01-12 13:16:00,
2013-01-12 05:21:00,24.6,19.9,29.59,NE,41,0.0,0.0,82,0.00,,---,0.00,VWS V14.01,2013-01-12 13:21:00,
2013-01-12 05:26:00,24.8,20.1,29.59,NE,41,0.0,0.0,82,0.00,,---,0.00,VWS V14.01,2013-01-12 13:26:00,
2013-01-12 05:31:00,25.0,20.3,29.59,NE,41,0.0,0.0,82,0.00,,---,0.00,VWS V14.01,2013-01-12 13:31:00,
2013-01-12 05:36:00,25.2,20.5,29.59,NE,41,0.0,0.0,82,0.00,,---,0.00,VWS V14.01,2013-01-12 13:36:00,
2013-01-12 05:41:00,25.2,20.5,29.59,NE,41,0.0,0.0,82,0.00,,---,0.00,VWS V14.01,2013-01-12 13:41:00,
2013-01-12 05:46:00,25.2,20.5,29.59,NE,41,0.0,0.0,82,0.00,,---,0.00,VWS V14.01,2013-01-12 13:46:00,
2013-01-12 05:51:00,25.2,20.5,29.59,NE,41,0.0,0.0,82,0.00,,---,0.00,VWS V14.01,2013-01-12 13:51:00,
2013-01-12 05:56:00,25.0,20.0,29.59,NE,41,0.0,0.0,81,0.00,,---,0.00,VWS V14.01,2013-01-12 13:56:00,
2013-01-12 06:01:00,24.6,19.6,29.59,NE,41,0.0,0.0,81,0.00,,---,0.00,VWS V14.01,2013-01-12 14:01:00,
2013-01-12 06:06:00,24.4,19.5,29.59,NE,41,0.0,0.0,81,0.00,,---,0.00,VWS V14.01,2013-01-12 14:06:00,
2013-01-12 06:11:00,24.1,19.1,29.59,NE,41,0.0,0.0,81,0.00,,---,0.00,VWS V14.01,2013-01-12 14:11:00,
2013-01-12 06:16:00,24.1,19.1,29.59,NE,41,0.0,0.0,81,0.00,,---,0.00,VWS V14.01,2013-01-12 14:16:00,
2013-01-12 06:21:00,24.1,19.1,29.59,NE,41,0.0,0.0,81,0.00,,---,0.00,VWS V14.01,2013-01-12 14:21:00,
2013-01-12 06:26:00,24.3,19.3,29.59,NE,41,0.0,0.0,81,0.00,,---,0.00,VWS V14.01,2013-01-12 14:26:00,
2013-01-12 06:31:00,24.4,19.5,29.59,NE,41,0.0,0.0,81,0.00,,---,0.00,VWS V14.01,2013-01-12 14:31:00,
2013-01-12 06:36:00,24.4,19.5,29.59,NE,40,0.0,0.0,81,0.00,,---,0.00,VWS V14.01,2013-01-12 14:36:00,
2013-01-12 06:41:00,24.4,19.5,29.59,NE,41,0.0,0.0,81,0.00,,---,0.00,VWS V14.01,2013-01-12 14:41:00,
2013-01-12 06:46:00,24.4,19.5,29.59,NE,41,0.0,0.0,81,0.00,,---,0.00,VWS V14.01,2013-01-12 14:46:00,
2013-01-12 06:51:00,24.4,19.5,29.59,NE,41,0.0,0.0,81,0.00,,---,0.00,VWS V14.01,2013-01-12 14:51:00,
2013-01-12 06:56:00,24.1,19.1,29.59,NE,41,0.0,0.0,81,0.00,,---,0.00,VWS V14.01,2013-01-12 14:56:00,
2013-01-12 07:01:00,23.9,18.9,29.59,NE,41,0.0,0.0,81,0.00,,---,0.00,VWS V14.01,2013-01-12 15:01:00,
2013-01-12 07:06:00,23.7,18.8,29.59,NE,41,0.0,0.0,81,0.00,,---,0.00,VWS V14.01,2013-01-12 15:06:00,
2013-01-12 07:11:00,23.5,18.6,29.59,NE,41,0.0,0.0,81,0.00,,---,0.00,VWS V14.01,2013-01-12 15:11:00,
2013-01-12 07:16:00,23.4,18.4,29.59,NE,41,0.0,0.0,81,0.00,,---,0.00,VWS V14.01,2013-01-12 15:16:00,
2013-01-12 07:21:00,23.2,18.2,29.59,NE,41,0.0,0.0,81,0.00,,---,0.00,VWS V14.01,2013-01-12 15:21:00,
2013-01-12 07:26:00,23.2,18.2,29.62,NE,41,0.0,0.0,81,0.00,,---,0.00,VWS V14.01,2013-01-12 15:26:00,
2013-01-12 07:31:00,23.0,18.0,29.62,NE,41,0.0,0.0,81,0.00,,---,0.00,VWS V14.01,2013-01-12 15:31:00,
2013-01-12 07:36:00,22.8,17.9,29.62,NE,41,0.0,0.0,81,0.00,,---,0.00,VWS V14.01,2013-01-12 15:36:00,
2013-01-12 07:41:00,23.0,18.0,29.62,NE,41,0.0,0.0,81,0.00,,---,0.00,VWS V14.01,2013-01-12 15:41:00,
2013-01-12 07:46:00,22.8,17.9,29.62,NE,41,0.0,0.0,81,0.00,,---,0.00,VWS V14.01,2013-01-12 15:46:00,
2013-01-12 07:51:00,22.8,17.9,29.62,NE,41,0.0,0.0,81,0.00,,---,0.00,VWS V14.01,2013-01-12 15:51:00,
2013-01-12 07:56:00,22.8,17.9,29.62,NE,41,0.0,0.0,81,0.00,,---,0.00,VWS V14.01,2013-01-12 15:56:00,
2013-01-12 08:01:00,22.8,17.9,29.62,NE,41,0.0,0.0,81,0.00,,---,0.00,VWS V14.01,2013-01-12 16:01:00,
2013-01-12 08:06:00,22.8,17.9,29.62,NE,41,0.0,0.0,81,0.00,,---,0.00,VWS V14.01,2013-01-12 16:06:00,
2013-01-12 08:11:00,22.8,18.2,29.62,NE,41,0.0,0.0,82,0.00,,---,0.00,VWS V14.01,2013-01-12 16:11:00,
2013-01-12 08:16:00,22.8,18.2,29.62,NE,41,0.0,0.0,82,0.00,,---,0.00,VWS V14.01,2013-01-12 16:16:00,
2013-01-12 08:21:00,23.0,18.3,29.62,NE,41,0.0,0.0,82,0.00,,---,0.00,VWS V14.01,2013-01-12 16:21:00,
2013-01-12 08:26:00,23.4,18.7,29.62,NE,41,0.0,0.0,82,0.00,,---,0.00,VWS V14.01,2013-01-12 16:26:00,
2013-01-12 08:31:00,23.7,19.0,29.62,NE,41,0.0,0.0,82,0.00,,---,0.00,VWS V14.01,2013-01-12 16:31:00,
2013-01-12 08:36:00,24.1,19.7,29.62,NE,41,0.0,0.0,83,0.00,,---,0.00,VWS V14.01,2013-01-12 16:36:00,
2013-01-12 08:41:00,24.6,20.5,29.62,NE,41,0.0,0.0,84,0.00,,---,0.00,VWS V14.01,2013-01-12 16:41:00,
2013-01-12 08:46:00,25.3,21.2,29.62,NE,41,0.0,0.0,84,0.00,,---,0.00,VWS V14.01,2013-01-12 16:46:00,
2013-01-12 08:51:00,25.9,21.7,29.62,NE,41,0.0,0.0,84,0.00,,---,0.00,VWS V14.01,2013-01-12 16:51:00,
2013-01-12 08:56:00,26.4,22.5,29.62,NE,41,0.0,0.0,85,0.00,,---,0.00,VWS V14.01,2013-01-12 16:56:00,
2013-01-12 09:01:00,27.0,23.1,29.62,NE,41,0.0,0.0,85,0.00,,---,0.00,VWS V14.01,2013-01-12 17:01:00,
2013-01-12 09:06:00,27.5,23.6,29.62,NE,41,0.0,0.0,85,0.00,,---,0.00,VWS V14.01,2013-01-12 17:06:00,
2013-01-12 09:11:00,27.9,24.0,29.62,NE,41,0.0,0.0,85,0.00,,---,0.00,VWS V14.01,2013-01-12 17:11:00,
2013-01-12 09:16:00,28.0,24.1,29.62,NE,41,0.0,0.0,85,0.00,,---,0.00,VWS V14.01,2013-01-12 17:16:00,
2013-01-12 09:21:00,28.4,24.8,29.62,NE,41,0.0,0.0,86,0.00,,---,0.00,VWS V14.01,2013-01-12 17:21:00,
2013-01-12 09:26:00,28.6,24.6,29.62,NE,41,0.0,0.0,85,0.00,,---,0.00,VWS V14.01,2013-01-12 17:26:00,
2013-01-12 09:31:00,28.8,24.8,29.62,NE,41,0.0,0.0,85,0.00,,---,0.00,VWS V14.01,2013-01-12 17:31:00,
2013-01-12 09:36:00,29.1,25.2,29.62,NE,41,0.0,0.0,85,0.00,,---,0.00,VWS V14.01,2013-01-12 17:36:00,
2013-01-12 09:41:00,29.3,25.4,29.62,NE,41,0.0,0.0,85,0.00,,---,0.00,VWS V14.01,2013-01-12 17:41:00,
2013-01-12 09:46:00,29.5,25.2,29.62,NE,41,0.0,0.0,84,0.00,,---,0.00,VWS V14.01,2013-01-12 17:46:00,
2013-01-12 09:51:00,29.7,25.1,29.62,NE,41,0.0,0.0,83,0.00,,---,0.00,VWS V14.01,2013-01-12 17:51:00,
2013-01-12 09:56:00,29.8,25.0,29.65,NE,41,0.0,0.0,82,0.00,,---,0.00,VWS V14.01,2013-01-12 17:56:00,
2013-01-12 10:01:00,30.0,25.2,29.65,NE,41,0.0,0.0,82,0.00,,---,0.00,VWS V14.01,2013-01-12 18:01:00,
2013-01-12 10:06:00,30.2,25.4,29.65,NE,41,0.0,0.0,82,0.00,,---,0.00,VWS V14.01,2013-01-12 18:06:00,
2013-01-12 10:11:00,30.4,25.3,29.65,NE,41,0.0,0.0,81,0.00,,---,0.00,VWS V14.01,2013-01-12 18:11:00,
2013-01-12 10:16:00,30.6,25.4,29.65,NE,41,0.0,0.0,81,0.00,,---,0.00,VWS V14.01,2013-01-12 18:16:00,
2013-01-12 10:21:00,30.7,25.6,29.65,NE,41,0.0,0.0,81,0.00,,---,0.00,VWS V14.01,2013-01-12 18:21:00,
2013-01-12 10:26:00,30.9,25.8,29.65,NE,41,0.0,0.0,81,0.00,,---,0.00,VWS V14.01,2013-01-12 18:26:00,
2013-01-12 10:31:00,31.1,26.0,29.65,NE,41,0.0,0.0,81,0.00,,---,0.00,VWS V14.01,2013-01-12 18:31:00,
2013-01-12 10:36:00,31.3,26.1,29.65,NE,41,0.0,0.0,81,0.00,,---,0.00,VWS V14.01,2013-01-12 18:36:00,
2013-01-12 10:41:00,31.5,26.3,29.65,NE,41,0.0,0.0,81,0.00,,---,0.00,VWS V14.01,2013-01-12 18:41:00,
2013-01-12 10:46:00,31.6,26.2,29.65,NE,41,0.0,0.0,80,0.00,,---,0.00,VWS V14.01,2013-01-12 18:46:00,
2013-01-12 10:51:00,31.8,26.4,29.65,NE,41,0.0,0.0,80,0.00,,---,0.00,VWS V14.01,2013-01-12 18:51:00,
2013-01-12 10:56:00,32.2,26.4,29.65,NE,41,0.0,0.0,79,0.00,,---,0.00,VWS V14.01,2013-01-12 18:56:00,
2013-01-12 11:01:00,32.2,26.1,29.65,NE,41,0.0,0.0,78,0.00,,---,0.00,VWS V14.01,2013-01-12 19:01:00,
2013-01-12 11:06:00,32.2,26.1,29.65,NE,41,0.0,0.0,78,0.00,,---,0.00,VWS V14.01,2013-01-12 19:06:00,
2013-01-12 11:11:00,32.2,25.8,29.62,NE,41,0.0,0.0,77,0.00,,---,0.00,VWS V14.01,2013-01-12 19:11:00,
2013-01-12 11:16:00,32.4,25.6,29.62,NE,41,0.0,0.0,76,0.00,,---,0.00,VWS V14.01,2013-01-12 19:16:00,
2013-01-12 11:21:00,32.4,25.3,29.62,NE,41,0.0,0.0,75,0.00,,---,0.00,VWS V14.01,2013-01-12 19:21:00,
2013-01-12 11:26:00,32.5,25.5,29.62,NE,41,0.0,0.0,75,0.00,,---,0.00,VWS V14.01,2013-01-12 19:26:00,
2013-01-12 11:31:00,32.9,25.9,29.62,NE,41,0.0,0.0,75,0.00,,---,0.00,VWS V14.01,2013-01-12 19:31:00,
2013-01-12 11:36:00,33.1,26.0,29.62,NE,41,0.0,0.0,75,0.00,,---,0.00,VWS V14.01,2013-01-12 19:36:00,
2013-01-12 11:41:00,33.4,26.1,29.62,NE,41,0.0,0.0,74,0.00,,---,0.00,VWS V14.01,2013-01-12 19:41:00,
2013-01-12 11:46:00,33.6,26.2,29.62,NE,41,0.0,0.0,74,0.00,,---,0.00,VWS V14.01,2013-01-12 19:46:00,
2013-01-12 11:51:00,33.8,26.1,29.62,NE,41,0.0,0.0,73,0.00,,---,0.00,VWS V14.01,2013-01-12 19:51:00,
2013-01-12 11:56:00,34.0,25.9,29.62,NE,41,0.0,0.0,72,0.00,,---,0.00,VWS V14.01,2013-01-12 19:56:00,
2013-01-12 12:01:00,34.3,25.9,29.62,NE,41,0.0,0.0,71,0.00,,---,0.00,VWS V14.01,2013-01-12 20:01:00,
2013-01-12 12:06:00,34.5,26.1,29.62,NE,41,0.0,0.0,71,0.00,,---,0.00,VWS V14.01,2013-01-12 20:06:00,
2013-01-12 12:11:00,34.9,26.1,29.62,NE,41,0.0,0.0,70,0.00,,---,0.00,VWS V14.01,2013-01-12 20:11:00,
2013-01-12 12:16:00,35.2,26.1,29.62,NE,41,0.0,0.0,69,0.00,,---,0.00,VWS V14.01,2013-01-12 20:16:00,
2013-01-12 12:21:00,35.4,25.6,29.62,NE,41,0.0,0.0,67,0.00,,---,0.00,VWS V14.01,2013-01-12 20:21:00,
2013-01-12 12:26:00,35.4,25.6,29.62,NE,41,0.0,0.0,67,0.00,,---,0.00,VWS V14.01,2013-01-12 20:26:00,
2013-01-12 12:31:00,35.4,25.6,29.62,NE,41,0.0,0.0,67,0.00,,---,0.00,VWS V14.01,2013-01-12 20:31:00,
2013-01-12 12:36:00,35.8,26.6,29.62,NE,41,0.0,0.0,69,0.00,,---,0.00,VWS V14.01,2013-01-12 20:36:00,
2013-01-12 12:41:00,36.0,26.4,29.62,NE,41,0.0,0.0,68,0.00,,---,0.00,VWS V14.01,2013-01-12 20:41:00,
2013-01-12 12:46:00,35.8,26.3,29.62,NE,41,0.0,0.0,68,0.00,,---,0.00,VWS V14.01,2013-01-12 20:46:00,
2013-01-12 12:51:00,35.6,25.7,29.62,NE,41,0.0,0.0,67,0.00,,---,0.00,VWS V14.01,2013-01-12 20:51:00,
2013-01-12 12:56:00,35.8,26.3,29.62,NE,41,0.0,0.0,68,0.00,,---,0.00,VWS V14.01,2013-01-12 20:56:00,
2013-01-12 13:01:00,36.1,26.6,29.62,NE,41,0.0,0.0,68,0.00,,---,0.00,VWS V14.01,2013-01-12 21:01:00,
2013-01-12 13:06:00,36.7,27.5,29.62,NE,41,0.0,0.0,69,0.00,,---,0.00,VWS V14.01,2013-01-12 21:06:00,
2013-01-12 13:11:00,37.0,28.2,29.62,NE,41,0.0,0.0,70,0.00,,---,0.00,VWS V14.01,2013-01-12 21:11:00,
2013-01-12 13:16:00,36.9,27.7,29.62,NE,41,0.0,0.0,69,0.00,,---,0.00,VWS V14.01,2013-01-12 21:16:00,
2013-01-12 13:21:00,36.7,27.1,29.62,NE,41,0.0,0.0,68,0.00,,---,0.00,VWS V14.01,2013-01-12 21:21:00,
2013-01-12 13:26:00,37.0,27.8,29.62,NE,41,0.0,0.0,69,0.00,,---,0.00,VWS V14.01,2013-01-12 21:26:00,
2013-01-12 13:31:00,37.8,28.5,29.62,NE,41,0.0,0.0,69,0.00,,---,0.00,VWS V14.01,2013-01-12 21:31:00,
2013-01-12 13:36:00,38.1,28.5,29.62,NE,41,0.0,0.0,68,0.00,,---,0.00,VWS V14.01,2013-01-12 21:36:00,
2013-01-12 13:41:00,38.5,28.9,29.62,NE,41,0.0,0.0,68,0.00,,---,0.00,VWS V14.01,2013-01-12 21:41:00,
2013-01-12 13:45:00,38.7,28.3,29.62,NE,41,0.0,0.0,66,0.00,,---,0.00,VWS V14.01,2013-01-12 21:45:00,
2013-01-12 13:50:00,39.0,28.3,29.62,NE,41,0.0,0.0,65,0.00,,---,0.00,VWS V14.01,2013-01-12 21:50:00,
2013-01-12 13:55:00,39.4,27.1,29.62,NE,41,0.0,0.0,61,0.00,,---,0.00,VWS V14.01,2013-01-12 21:55:00,
2013-01-12 14:00:00,39.6,26.8,29.62,NE,41,0.0,0.0,60,0.00,,---,0.00,VWS V14.01,2013-01-12 22:00:00,
2013-01-12 14:05:00,39.9,26.8,29.62,NE,41,0.0,0.0,59,0.00,,---,0.00,VWS V14.01,2013-01-12 22:05:00,
2013-01-12 14:10:00,40.3,26.7,29.62,NE,41,0.0,0.0,58,0.00,,---,0.00,VWS V14.01,2013-01-12 22:10:00,
2013-01-12 14:15:00,40.6,27.0,29.62,NE,41,0.0,0.0,58,0.00,,---,0.00,VWS V14.01,2013-01-12 22:15:00,
2013-01-12 14:20:00,41.2,26.7,29.62,NE,41,0.0,0.0,56,0.00,,---,0.00,VWS V14.01,2013-01-12 22:20:00,
2013-01-12 14:25:00,41.2,26.2,29.62,NE,41,0.0,0.0,55,0.00,,---,0.00,VWS V14.01,2013-01-12 22:25:00,
2013-01-12 14:30:00,41.0,25.6,29.62,NE,41,0.0,0.0,54,0.00,,---,0.00,VWS V14.01,2013-01-12 22:30:00,
2013-01-12 14:36:00,40.3,25.4,29.62,NE,39,0.0,0.0,55,0.00,,---,0.00,VWS V14.01,2013-01-12 22:36:00,
2013-01-12 14:41:00,39.9,25.5,29.62,NE,42,0.0,0.0,56,0.00,,---,0.00,VWS V14.01,2013-01-12 22:41:00,
2013-01-12 14:46:00,39.9,25.5,29.62,NE,42,0.0,0.0,56,0.00,,---,0.00,VWS V14.01,2013-01-12 22:46:00,
2013-01-12 14:51:00,39.4,25.0,29.62,NE,42,0.0,0.0,56,0.00,,---,0.00,VWS V14.01,2013-01-12 22:51:00,
2013-01-12 14:56:00,38.7,25.2,29.62,NE,42,0.0,3.6,58,0.00,,---,0.00,VWS V14.01,2013-01-12 22:56:00,
2013-01-12 15:01:00,38.1,24.7,29.62,NE,43,0.0,0.0,58,0.00,,---,0.00,VWS V14.01,2013-01-12 23:01:00,
2013-01-12 15:06:00,37.6,25.0,29.62,NE,44,0.0,2.7,60,0.00,,---,0.00,VWS V14.01,2013-01-12 23:06:00,
2013-01-12 15:11:00,37.0,24.9,29.62,NE,43,2.7,2.7,61,0.00,,---,0.00,VWS V14.01,2013-01-12 23:11:00,
2013-01-12 15:16:00,36.3,24.2,29.62,NE,42,0.0,0.0,61,0.00,,---,0.00,VWS V14.01,2013-01-12 23:16:00,
2013-01-12 15:20:00,36.0,24.2,29.62,NE,41,0.0,0.0,62,0.00,,---,0.00,VWS V14.01,2013-01-12 23:20:00,
2013-01-12 15:25:00,35.6,24.3,29.62,NE,41,0.0,0.0,63,0.00,,---,0.00,VWS V14.01,2013-01-12 23:25:00,
2013-01-12 15:31:00,35.2,24.3,29.62,NE,41,0.0,0.0,64,0.00,,---,0.00,VWS V14.01,2013-01-12 23:31:00,
2013-01-12 15:35:00,35.1,24.9,29.62,NE,42,0.0,0.0,66,0.00,,---,0.00,VWS V14.01,2013-01-12 23:35:00,
2013-01-12 15:40:00,35.1,25.2,29.62,NE,41,0.0,0.0,67,0.00,,---,0.00,VWS V14.01,2013-01-12 23:40:00,
2013-01-12 15:45:00,34.7,24.9,29.62,NE,41,0.0,0.0,67,0.00,,---,0.00,VWS V14.01,2013-01-12 23:45:00,
2013-01-12 15:50:00,34.5,24.7,29.62,NE,41,0.0,0.0,67,0.00,,---,0.00,VWS V14.01,2013-01-12 23:50:00,
2013-01-12 15:55:00,34.2,24.7,29.62,NE,41,0.0,0.0,68,0.00,,---,0.00,VWS V14.01,2013-01-12 23:55:00,
2013-01-12 16:00:00,33.6,24.2,29.62,NE,41,0.0,0.0,68,0.00,,---,0.00,VWS V14.01,2013-01-13 00:00:00,
2013-01-12 16:05:00,33.1,24.0,29.62,NE,41,0.0,0.0,69,0.00,,---,0.00,VWS V14.01,2013-01-13 00:05:00,
2013-01-12 16:10:00,32.4,23.7,29.62,NE,41,0.0,0.0,70,0.00,,---,0.00,VWS V14.01,2013-01-13 00:10:00,
2013-01-12 16:15:00,31.8,23.2,29.62,NE,41,0.0,0.0,70,0.00,,---,0.00,VWS V14.01,2013-01-13 00:15:00,
2013-01-12 16:20:00,31.1,22.8,29.62,NE,41,0.0,0.0,71,0.00,,---,0.00,VWS V14.01,2013-01-13 00:20:00,
2013-01-12 16:25:00,30.7,22.8,29.62,NE,41,0.0,3.1,72,0.00,,---,0.00,VWS V14.01,2013-01-13 00:25:00,
2013-01-12 16:30:00,30.4,22.5,29.62,NE,41,0.0,0.0,72,0.00,,---,0.00,VWS V14.01,2013-01-13 00:30:00,
2013-01-12 16:35:00,30.0,22.4,29.62,NE,41,0.0,0.0,73,0.00,,---,0.00,VWS V14.01,2013-01-13 00:35:00,
2013-01-12 16:40:00,29.7,22.4,29.62,NE,41,0.0,0.0,74,0.00,,---,0.00,VWS V14.01,2013-01-13 00:40:00,
2013-01-12 16:45:00,29.5,22.5,29.62,NE,41,0.0,0.0,75,0.00,,---,0.00,VWS V14.01,2013-01-13 00:45:00,
2013-01-12 16:50:00,29.5,22.9,29.62,NE,41,0.0,0.0,76,0.00,,---,0.00,VWS V14.01,2013-01-13 00:50:00,
2013-01-12 16:55:00,29.3,23.0,29.62,NE,41,0.0,0.0,77,0.00,,---,0.00,VWS V14.01,2013-01-13 00:55:00,
2013-01-12 17:00:00,29.3,23.0,29.62,NE,41,0.0,0.0,77,0.00,,---,0.00,VWS V14.01,2013-01-13 01:00:00,
2013-01-12 17:05:00,29.3,23.3,29.62,NE,41,0.0,0.0,78,0.00,,---,0.00,VWS V14.01,2013-01-13 01:05:00,
2013-01-12 17:10:00,29.1,23.1,29.62,NE,41,0.0,0.0,78,0.00,,---,0.00,VWS V14.01,2013-01-13 01:10:00,
2013-01-12 17:15:00,29.1,23.4,29.62,NE,41,0.0,0.0,79,0.00,,---,0.00,VWS V14.01,2013-01-13 01:15:00,
2013-01-12 17:20:00,29.1,23.4,29.62,NE,41,0.0,0.0,79,0.00,,---,0.00,VWS V14.01,2013-01-13 01:20:00,
2013-01-12 17:25:00,28.9,23.6,29.62,NE,41,0.0,0.0,80,0.00,,---,0.00,VWS V14.01,2013-01-13 01:25:00,
2013-01-12 17:30:00,28.9,23.6,29.62,NE,41,0.0,0.0,80,0.00,,---,0.00,VWS V14.01,2013-01-13 01:30:00,
2013-01-12 17:35:00,28.8,23.4,29.62,NE,41,0.0,0.0,80,0.00,,---,0.00,VWS V14.01,2013-01-13 01:35:00,
2013-01-12 17:40:00,28.8,23.7,29.62,NE,41,0.0,0.0,81,0.00,,---,0.00,VWS V14.01,2013-01-13 01:40:00,
2013-01-12 17:45:00,28.8,23.7,29.62,NE,41,0.0,0.0,81,0.00,,---,0.00,VWS V14.01,2013-01-13 01:45:00,
2013-01-12 17:50:00,28.8,24.0,29.62,NE,41,0.0,0.0,82,0.00,,---,0.00,VWS V14.01,2013-01-13 01:50:00,
2013-01-12 17:55:00,28.8,24.0,29.65,NE,41,0.0,2.7,82,0.00,,---,0.00,VWS V14.01,2013-01-13 01:55:00,
2013-01-12 18:00:00,28.8,24.3,29.65,NE,41,0.0,0.0,83,0.00,,---,0.00,VWS V14.01,2013-01-13 02:00:00,
2013-01-12 18:05:00,28.8,24.3,29.65,NE,41,0.0,0.0,83,0.00,,---,0.00,VWS V14.01,2013-01-13 02:05:00,
2013-01-12 18:10:00,28.8,24.3,29.65,NE,41,0.0,0.0,83,0.00,,---,0.00,VWS V14.01,2013-01-13 02:10:00,
2013-01-12 18:15:00,28.9,24.7,29.65,NE,41,0.0,0.0,84,0.00,,---,0.00,VWS V14.01,2013-01-13 02:15:00,
2013-01-12 18:20:00,28.9,24.7,29.65,NE,41,0.0,0.0,84,0.00,,---,0.00,VWS V14.01,2013-01-13 02:20:00,
2013-01-12 18:25:00,28.9,24.7,29.62,NE,41,0.0,0.0,84,0.00,,---,0.00,VWS V14.01,2013-01-13 02:25:00,
2013-01-12 18:30:00,28.9,25.0,29.62,NE,41,0.0,0.0,85,0.00,,---,0.00,VWS V14.01,2013-01-13 02:30:00,
2013-01-12 18:35:00,28.9,25.0,29.62,NE,41,0.0,0.0,85,0.00,,---,0.00,VWS V14.01,2013-01-13 02:35:00,
2013-01-12 18:40:00,28.8,24.8,29.65,NE,41,0.0,0.0,85,0.00,,---,0.00,VWS V14.01,2013-01-13 02:40:00,
2013-01-12 18:45:00,28.6,24.6,29.65,NE,41,0.0,0.0,85,0.00,,---,0.00,VWS V14.01,2013-01-13 02:45:00,
2013-01-12 18:50:00,28.4,24.5,29.65,NE,41,0.0,0.0,85,0.00,,---,0.00,VWS V14.01,2013-01-13 02:50:00,
2013-01-12 18:55:00,28.2,24.3,29.65,NE,41,0.0,0.0,85,0.00,,---,0.00,VWS V14.01,2013-01-13 02:55:00,
2013-01-12 19:00:00,28.0,24.1,29.65,NE,41,0.0,0.0,85,0.00,,---,0.00,VWS V14.01,2013-01-13 03:00:00,
2013-01-12 19:05:00,27.9,24.2,29.65,NE,41,0.0,0.0,86,0.00,,---,0.00,VWS V14.01,2013-01-13 03:05:00,
2013-01-12 19:10:00,27.9,24.2,29.65,NE,41,0.0,0.0,86,0.00,,---,0.00,VWS V14.01,2013-01-13 03:10:00,
2013-01-12 19:15:00,27.7,24.0,29.65,NE,41,0.0,0.0,86,0.00,,---,0.00,VWS V14.01,2013-01-13 03:15:00,
2013-01-12 19:20:00,27.7,24.0,29.65,NE,41,0.0,0.0,86,0.00,,---,0.00,VWS V14.01,2013-01-13 03:20:00,
2013-01-12 19:25:00,27.7,24.0,29.65,NE,41,0.0,0.0,86,0.00,,---,0.00,VWS V14.01,2013-01-13 03:25:00,
2013-01-12 19:30:00,27.7,24.0,29.65,NE,41,0.0,0.0,86,0.00,,---,0.00,VWS V14.01,2013-01-13 03:30:00,
2013-01-12 19:35:00,27.9,24.2,29.65,NE,41,0.0,0.0,86,0.00,,---,0.00,VWS V14.01,2013-01-13 03:35:00,
2013-01-12 19:40:00,27.9,24.5,29.65,NE,41,0.0,0.0,87,0.00,,---,0.00,VWS V14.01,2013-01-13 03:40:00,
2013-01-12 19:45:00,27.9,24.5,29.65,NE,41,0.0,0.0,87,0.00,,---,0.00,VWS V14.01,2013-01-13 03:45:00,
2013-01-12 19:50:00,28.0,24.7,29.65,NE,41,0.0,0.0,87,0.00,,---,0.00,VWS V14.01,2013-01-13 03:50:00,
2013-01-12 19:55:00,28.0,24.7,29.65,NE,41,0.0,0.0,87,0.00,,---,0.00,VWS V14.01,2013-01-13 03:55:00,
2013-01-12 20:00:00,28.2,24.9,29.65,NE,41,0.0,0.0,87,0.00,,---,0.00,VWS V14.01,2013-01-13 04:00:00,
2013-01-12 20:05:00,28.4,25.0,29.65,NE,41,0.0,0.0,87,0.00,,---,0.00,VWS V14.01,2013-01-13 04:05:00,
2013-01-12 20:10:00,28.4,25.0,29.65,NE,41,0.0,0.0,87,0.00,,---,0.00,VWS V14.01,2013-01-13 04:10:00,
2013-01-12 20:15:00,28.4,25.3,29.65,NE,41,0.0,0.0,88,0.00,,---,0.00,VWS V14.01,2013-01-13 04:15:00,
2013-01-12 20:20:00,28.4,25.3,29.65,NE,41,0.0,0.0,88,0.00,,---,0.00,VWS V14.01,2013-01-13 04:20:00,
2013-01-12 20:25:00,28.4,25.3,29.65,NE,41,0.0,0.0,88,0.00,,---,0.00,VWS V14.01,2013-01-13 04:25:00,
2013-01-12 20:30:00,28.4,25.3,29.65,NE,41,0.0,0.0,88,0.00,,---,0.00,VWS V14.01,2013-01-13 04:30:00,
2013-01-12 20:35:00,28.2,25.1,29.65,NE,41,0.0,0.0,88,0.00,,---,0.00,VWS V14.01,2013-01-13 04:35:00,
2013-01-12 20:40:00,28.2,25.1,29.65,NE,41,0.0,0.0,88,0.00,,---,0.00,VWS V14.01,2013-01-13 04:40:00,
2013-01-12 20:45:00,28.2,25.1,29.65,NE,41,0.0,0.0,88,0.00,,---,0.00,VWS V14.01,2013-01-13 04:45:00,
2013-01-12 20:50:00,28.0,25.0,29.65,NE,41,0.0,0.0,88,0.00,,---,0.00,VWS V14.01,2013-01-13 04:50:00,
2013-01-12 20:55:00,28.0,25.0,29.65,NE,41,0.0,0.0,88,0.00,,---,0.00,VWS V14.01,2013-01-13 04:55:00,
2013-01-12 21:00:00,28.0,25.0,29.65,NE,41,0.0,0.0,88,0.00,,---,0.00,VWS V14.01,2013-01-13 05:00:00,
2013-01-12 21:01:00,28.0,25.0,29.65,NE,41,0.0,0.0,88,0.00,,---,0.00,VWS V14.01,2013-01-13 05:01:00,
2013-01-12 21:03:00,27.9,24.8,29.65,NE,41,0.0,0.0,88,0.00,,---,0.00,VWS V14.01,2013-01-13 05:03:00,
2013-01-12 21:08:00,27.9,24.8,29.65,NE,41,0.0,0.0,88,0.00,,---,0.00,VWS V14.01,2013-01-13 05:08:00,
2013-01-12 21:13:00,27.9,24.8,29.65,NE,41,0.0,0.0,88,0.00,,---,0.00,VWS V14.01,2013-01-13 05:13:00,
2013-01-12 21:18:00,27.9,25.0,29.65,NE,41,0.0,0.0,89,0.00,,---,0.00,VWS V14.01,2013-01-13 05:18:00,
2013-01-12 21:23:00,27.9,25.0,29.65,NE,41,0.0,0.0,89,0.00,,---,0.00,VWS V14.01,2013-01-13 05:23:00,
2013-01-12 21:28:00,27.9,25.0,29.65,NE,41,0.0,0.0,89,0.00,,---,0.00,VWS V14.01,2013-01-13 05:28:00,
2013-01-12 21:33:00,27.7,24.9,29.65,NE,41,0.0,0.0,89,0.00,,---,0.00,VWS V14.01,2013-01-13 05:33:00,
2013-01-12 21:38:00,27.7,24.9,29.65,NE,41,0.0,0.0,89,0.00,,---,0.00,VWS V14.01,2013-01-13 05:38:00,
2013-01-12 21:43:00,27.7,24.9,29.65,NE,41,0.0,0.0,89,0.00,,---,0.00,VWS V14.01,2013-01-13 05:43:00,
2013-01-12 21:48:00,27.7,24.9,29.65,NE,41,0.0,0.0,89,0.00,,---,0.00,VWS V14.01,2013-01-13 05:48:00,
2013-01-12 21:53:00,27.5,25.0,29.65,NE,41,0.0,0.0,90,0.00,,---,0.00,VWS V14.01,2013-01-13 05:53:00,
2013-01-12 21:58:00,27.5,25.0,29.65,NE,41,0.0,0.0,90,0.00,,---,0.00,VWS V14.01,2013-01-13 05:58:00,
2013-01-12 22:03:00,27.5,25.0,29.65,NE,41,0.0,0.0,90,0.00,,---,0.00,VWS V14.01,2013-01-13 06:03:00,
2013-01-12 22:08:00,27.5,25.0,29.68,NE,41,0.0,0.0,90,0.00,,---,0.00,VWS V14.01,2013-01-13 06:08:00,
2013-01-12 22:13:00,27.7,25.1,29.68,NE,41,0.0,0.0,90,0.00,,---,0.00,VWS V14.01,2013-01-13 06:13:00,
2013-01-12 22:18:00,27.5,25.0,29.68,NE,41,0.0,0.0,90,0.00,,---,0.00,VWS V14.01,2013-01-13 06:18:00,
2013-01-12 22:23:00,27.5,25.0,29.68,NE,41,0.0,0.0,90,0.00,,---,0.00,VWS V14.01,2013-01-13 06:23:00,
2013-01-12 22:28:00,27.5,25.0,29.68,NE,41,0.0,0.0,90,0.00,,---,0.00,VWS V14.01,2013-01-13 06:28:00,
2013-01-12 22:33:00,27.7,25.1,29.68,NE,41,0.0,0.0,90,0.00,,---,0.00,VWS V14.01,2013-01-13 06:33:00,
2013-01-12 22:38:00,27.7,25.1,29.68,NE,41,0.0,0.0,90,0.00,,---,0.00,VWS V14.01,2013-01-13 06:38:00,
2013-01-12 22:43:00,27.7,25.1,29.68,NE,41,0.0,0.0,90,0.00,,---,0.00,VWS V14.01,2013-01-13 06:43:00,
2013-01-12 22:48:00,27.7,25.1,29.68,NE,41,0.0,0.0,90,0.00,,---,0.00,VWS V14.01,2013-01-13 06:48:00,
2013-01-12 22:53:00,27.7,25.4,29.68,NE,41,0.0,0.0,91,0.00,,---,0.00,VWS V14.01,2013-01-13 06:53:00,
2013-01-12 22:58:00,27.7,25.4,29.68,NE,41,0.0,0.0,91,0.00,,---,0.00,VWS V14.01,2013-01-13 06:58:00,
2013-01-12 23:03:00,27.7,25.4,29.68,NE,41,0.0,0.0,91,0.00,,---,0.00,VWS V14.01,2013-01-13 07:03:00,
2013-01-12 23:08:00,27.7,25.4,29.68,NE,41,0.0,0.0,91,0.00,,---,0.00,VWS V14.01,2013-01-13 07:08:00,
2013-01-12 23:13:00,27.5,25.2,29.68,NE,41,0.0,0.0,91,0.00,,---,0.00,VWS V14.01,2013-01-13 07:13:00,
2013-01-12 23:18:00,27.5,25.2,29.68,NE,41,0.0,0.0,91,0.00,,---,0.00,VWS V14.01,2013-01-13 07:18:00,
2013-01-12 23:23:00,27.3,25.0,29.68,NE,41,0.0,0.0,91,0.00,,---,0.00,VWS V14.01,2013-01-13 07:23:00,
2013-01-12 23:28:00,27.1,24.9,29.68,NE,41,0.0,0.0,91,0.00,,---,0.00,VWS V14.01,2013-01-13 07:28:00,
2013-01-12 23:33:00,27.1,24.9,29.68,NE,41,0.0,0.0,91,0.00,,---,0.00,VWS V14.01,2013-01-13 07:33:00,
2013-01-12 23:38:00,27.0,24.7,29.68,NE,41,0.0,0.0,91,0.00,,---,0.00,VWS V14.01,2013-01-13 07:38:00,
2013-01-12 23:43:00,27.0,24.7,29.68,NE,41,0.0,0.0,91,0.00,,---,0.00,VWS V14.01,2013-01-13 07:43:00,
2013-01-12 23:48:00,27.0,24.7,29.68,NE,41,0.0,0.0,91,0.00,,---,0.00,VWS V14.01,2013-01-13 07:48:00,
2013-01-12 23:53:00,27.1,24.9,29.68,NE,41,0.0,0.0,91,0.00,,---,0.00,VWS V14.01,2013-01-13 07:53:00,
2013-01-12 23:58:00,27.1,25.1,29.68,NE,41,0.0,0.0,92,0.00,,---,0.00,VWS V14.01,2013-01-13 07:58:00,